Date,TemperatureHighF,TemperatureAvgF,TemperatureLowF,DewpointHighF,DewpointAvgF,DewpointLowF,HumidityHigh,HumidityAvg,HumidityLow,PressureMaxIn,PressureMinIn,WindSpeedMaxMPH,WindSpeedAvgMPH,GustSpeedMaxMPH,PrecipitationSumIn
2013-4-1,63.4,51.9,40.6,49.3,44.6,39.3,97,77,56,30.12,29.97,16,2,17,0.00
2013-4-2,62.4,53.4,40.4,47.3,44.0,38.1,93,72,53,30.16,30.10,18,3,23,0.00
2013-4-3,54.4,51.9,49.0,47.8,46.9,45.4,88,83,78,29.98,29.95,1,0,0,0.00
2013-4-4,56.6,50.6,47.1,51.4,47.1,42.4,95,88,71,29.95,29.73,13,1,13,0.39
2013-4-5,57.1,49.9,44.9,49.4,45.1,42.4,96,84,68,29.94,29.84,15,1,16,0.53
2013-4-6,50.5,44.5,38.9,43.8,40.2,37.6,97,85,66,29.98,29.79,23,3,24,1.18
2013-4-7,46.1,40.1,33.9,41.6,37.0,32.4,97,89,76,29.91,29.56,26,3,27,1.36
2013-4-8,51.2,42.6,33.9,40.4,35.3,31.7,92,76,63,30.29,29.91,19,2,19,0.00
2013-4-9,58.7,44.2,29.8,42.7,35.7,28.5,96,75,45,30.36,30.23,11,1,0,0.00
2013-4-10,56.4,47.3,41.2,49.6,41.1,33.8,96,80,63,30.28,30.02,28,2,33,0.13
2013-4-11,51.1,44.1,34.2,38.7,34.8,31.0,90,70,58,30.29,30.17,16,2,21,0.00
2013-4-12,55.3,41.5,30.2,40.7,34.8,28.0,95,79,48,30.17,29.79,22,2,29,0.20
2013-4-13,46.2,39.8,33.6,38.2,32.5,28.0,91,75,58,30.04,29.80,25,4,25,0.25
2013-4-14,48.2,40.1,32.1,37.6,33.2,29.0,94,78,49,30.05,29.91,15,1,16,0.04
2013-4-15,48.9,39.1,30.8,38.8,32.9,28.4,92,79,52,30.15,29.92,15,2,16,0.02
2013-4-16,49.7,43.2,31.5,38.6,33.9,26.8,93,71,44,30.42,30.30,15,2,16,0.00
2013-4-17,56.8,43.0,29.2,37.7,31.6,26.8,94,68,38,30.49,30.41,15,1,15,0.00
2013-4-18,52.5,47.1,42.1,43.7,38.7,34.8,79,73,61,30.43,30.27,12,2,12,0.00
2013-4-19,57.9,50.4,46.7,49.1,44.4,41.9,87,80,66,30.27,30.08,23,2,23,0.53
2013-4-20,56.0,48.2,43.3,43.2,40.6,37.6,91,75,58,30.30,30.21,18,2,18,0.18
2013-4-21,53.7,46.5,38.7,43.8,39.3,35.6,93,76,65,30.29,30.19,17,2,20,0.02
2013-4-22,57.4,44.0,30.9,38.6,30.9,23.5,97,66,28,30.48,30.30,16,2,18,0.00
2013-4-23,65.8,46.6,29.6,34.7,28.8,20.0,86,55,18,30.44,30.17,17,2,17,0.00
2013-4-24,69.0,50.0,32.1,39.6,32.6,26.8,83,56,25,30.34,30.02,16,2,16,0.00
2013-4-25,73.3,57.3,38.6,44.6,38.8,34.4,85,55,30,30.12,29.99,12,2,13,0.00
2013-4-26,77.6,60.7,40.9,47.2,36.7,26.9,90,49,18,30.19,30.11,13,1,13,0.00
2013-4-27,70.1,57.8,43.2,42.8,37.1,27.3,82,50,22,30.19,30.12,17,3,18,0.00
2013-4-28,61.6,54.1,49.0,44.0,41.6,38.9,82,63,47,30.20,29.97,30,3,31,0.00
2013-4-29,53.1,47.2,38.8,43.8,34.9,27.0,85,64,40,30.14,29.95,22,4,34,0.19
2013-4-30,50.9,42.6,38.1,34.4,28.3,24.4,70,57,42,30.33,30.14,15,2,20,0.00